sensor_id;sensor_type;location;lat;lon;timestamp;P1;durP1;ratioP1;P2;durP2;ratioP2
10232;SDS011;5161;48.174;11.756;2024-02-26T00:01:00;6.60;;;6.00;;
10232;SDS011;5161;48.174;11.756;2024-02-26T00:03:25;7.23;;;6.20;;
10232;SDS011;5161;48.174;11.756;2024-02-26T00:05:51;7.30;;;6.20;;
10232;SDS011;5161;48.174;11.756;2024-02-26T00:08:17;6.77;;;5.90;;
10232;SDS011;5161;48.174;11.756;2024-02-26T00:10:42;6.70;;;6.00;;
10232;SDS011;5161;48.174;11.756;2024-02-26T00:13:08;6.10;;;5.50;;
10232;SDS011;5161;48.174;11.756;2024-02-26T00:15:33;6.70;;;5.43;;
10232;SDS011;5161;48.174;11.756;2024-02-26T00:18:00;5.43;;;4.80;;
10232;SDS011;5161;48.174;11.756;2024-02-26T00:20:26;5.30;;;4.83;;
10232;SDS011;5161;48.174;11.756;2024-02-26T00:22:51;5.30;;;4.80;;
10232;SDS011;5161;48.174;11.756;2024-02-26T00:25:17;5.10;;;4.60;;
10232;SDS011;5161;48.174;11.756;2024-02-26T00:27:43;5.20;;;4.70;;
10232;SDS011;5161;48.174;11.756;2024-02-26T00:30:09;5.13;;;4.70;;
10232;SDS011;5161;48.174;11.756;2024-02-26T00:32:35;5.50;;;5.00;;
10232;SDS011;5161;48.174;11.756;2024-02-26T00:35:01;6.13;;;5.23;;
10232;SDS011;5161;48.174;11.756;2024-02-26T00:37:26;6.80;;;5.80;;
10232;SDS011;5161;48.174;11.756;2024-02-26T00:39:52;9.17;;;7.23;;
10232;SDS011;5161;48.174;11.756;2024-02-26T00:42:19;7.53;;;6.67;;
10232;SDS011;5161;48.174;11.756;2024-02-26T00:44:44;8.10;;;6.60;;
10232;SDS011;5161;48.174;11.756;2024-02-26T00:47:10;7.57;;;6.33;;
10232;SDS011;5161;48.174;11.756;2024-02-26T00:49:36;6.93;;;6.07;;
10232;SDS011;5161;48.174;11.756;2024-02-26T00:52:02;7.10;;;5.97;;
10232;SDS011;5161;48.174;11.756;2024-02-26T00:54:27;8.00;;;5.57;;
10232;SDS011;5161;48.174;11.756;2024-02-26T00:56:53;8.43;;;5.87;;
10232;SDS011;5161;48.174;11.756;2024-02-26T00:59:19;7.00;;;5.80;;
10232;SDS011;5161;48.174;11.756;2024-02-26T01:01:44;6.83;;;6.13;;
10232;SDS011;5161;48.174;11.756;2024-02-26T01:04:10;6.80;;;6.10;;
10232;SDS011;5161;48.174;11.756;2024-02-26T01:06:36;6.60;;;5.90;;
10232;SDS011;5161;48.174;11.756;2024-02-26T01:09:02;6.73;;;6.00;;
10232;SDS011;5161;48.174;11.756;2024-02-26T01:11:28;7.17;;;5.90;;
10232;SDS011;5161;48.174;11.756;2024-02-26T01:13:53;6.30;;;5.70;;
10232;SDS011;5161;48.174;11.756;2024-02-26T01:16:21;7.90;;;5.53;;
10232;SDS011;5161;48.174;11.756;2024-02-26T01:18:49;5.67;;;5.17;;
10232;SDS011;5161;48.174;11.756;2024-02-26T01:21:15;6.43;;;5.60;;
10232;SDS011;5161;48.174;11.756;2024-02-26T01:23:40;5.20;;;4.70;;
10232;SDS011;5161;48.174;11.756;2024-02-26T01:26:06;5.43;;;4.93;;
10232;SDS011;5161;48.174;11.756;2024-02-26T01:28:31;7.53;;;5.10;;
10232;SDS011;5161;48.174;11.756;2024-02-26T01:30:57;5.50;;;5.00;;
10232;SDS011;5161;48.174;11.756;2024-02-26T01:33:24;6.27;;;5.50;;
10232;SDS011;5161;48.174;11.756;2024-02-26T01:35:51;6.03;;;5.43;;
10232;SDS011;5161;48.174;11.756;2024-02-26T01:38:18;5.83;;;5.20;;
10232;SDS011;5161;48.174;11.756;2024-02-26T01:40:43;5.90;;;5.30;;
10232;SDS011;5161;48.174;11.756;2024-02-26T01:43:09;5.63;;;5.13;;
10232;SDS011;5161;48.174;11.756;2024-02-26T01:45:34;6.80;;;5.40;;
10232;SDS011;5161;48.174;11.756;2024-02-26T01:48:00;7.83;;;5.20;;
10232;SDS011;5161;48.174;11.756;2024-02-26T01:50:26;5.33;;;4.87;;
10232;SDS011;5161;48.174;11.756;2024-02-26T01:52:52;6.13;;;5.50;;
10232;SDS011;5161;48.174;11.756;2024-02-26T01:55:19;5.43;;;4.93;;
10232;SDS011;5161;48.174;11.756;2024-02-26T01:57:45;5.73;;;5.13;;
10232;SDS011;5161;48.174;11.756;2024-02-26T02:00:12;5.87;;;5.23;;
10232;SDS011;5161;48.174;11.756;2024-02-26T02:02:41;5.43;;;4.93;;
10232;SDS011;5161;48.174;11.756;2024-02-26T02:05:09;5.40;;;4.90;;
10232;SDS011;5161;48.174;11.756;2024-02-26T02:07:36;5.40;;;4.90;;
10232;SDS011;5161;48.174;11.756;2024-02-26T02:10:02;5.50;;;5.00;;
10232;SDS011;5161;48.174;11.756;2024-02-26T02:12:28;5.00;;;4.50;;
10232;SDS011;5161;48.174;11.756;2024-02-26T02:14:54;5.30;;;4.80;;
10232;SDS011;5161;48.174;11.756;2024-02-26T02:17:20;5.00;;;4.60;;
10232;SDS011;5161;48.174;11.756;2024-02-26T02:19:45;5.83;;;5.23;;
10232;SDS011;5161;48.174;11.756;2024-02-26T02:22:11;5.20;;;4.70;;
10232;SDS011;5161;48.174;11.756;2024-02-26T02:24:37;5.50;;;5.00;;
10232;SDS011;5161;48.174;11.756;2024-02-26T02:27:02;5.87;;;5.27;;
10232;SDS011;5161;48.174;11.756;2024-02-26T02:29:29;7.43;;;5.70;;
10232;SDS011;5161;48.174;11.756;2024-02-26T02:31:54;5.70;;;5.03;;
10232;SDS011;5161;48.174;11.756;2024-02-26T02:34:21;5.60;;;5.10;;
10232;SDS011;5161;48.174;11.756;2024-02-26T02:36:48;5.93;;;4.90;;
10232;SDS011;5161;48.174;11.756;2024-02-26T02:39:17;5.47;;;4.93;;
10232;SDS011;5161;48.174;11.756;2024-02-26T02:41:42;5.10;;;4.60;;
10232;SDS011;5161;48.174;11.756;2024-02-26T02:44:08;4.80;;;4.40;;
10232;SDS011;5161;48.174;11.756;2024-02-26T02:46:34;4.27;;;3.97;;
10232;SDS011;5161;48.174;11.756;2024-02-26T02:49:00;5.90;;;4.77;;
10232;SDS011;5161;48.174;11.756;2024-02-26T02:51:26;5.23;;;4.73;;
10232;SDS011;5161;48.174;11.756;2024-02-26T02:53:51;5.20;;;4.70;;
10232;SDS011;5161;48.174;11.756;2024-02-26T02:56:17;6.13;;;4.53;;
10232;SDS011;5161;48.174;11.756;2024-02-26T02:58:42;4.97;;;4.47;;
10232;SDS011;5161;48.174;11.756;2024-02-26T03:01:08;8.27;;;5.33;;
10232;SDS011;5161;48.174;11.756;2024-02-26T03:03:34;6.57;;;4.83;;
10232;SDS011;5161;48.174;11.756;2024-02-26T03:06:00;5.47;;;4.97;;
10232;SDS011;5161;48.174;11.756;2024-02-26T03:08:26;4.80;;;4.30;;
10232;SDS011;5161;48.174;11.756;2024-02-26T03:10:51;6.87;;;5.00;;
10232;SDS011;5161;48.174;11.756;2024-02-26T03:13:17;5.80;;;4.60;;
10232;SDS011;5161;48.174;11.756;2024-02-26T03:15:42;6.60;;;4.67;;
10232;SDS011;5161;48.174;11.756;2024-02-26T03:18:08;5.73;;;4.67;;
10232;SDS011;5161;48.174;11.756;2024-02-26T03:20:34;7.07;;;4.70;;
10232;SDS011;5161;48.174;11.756;2024-02-26T03:22:59;4.93;;;4.43;;
10232;SDS011;5161;48.174;11.756;2024-02-26T03:25:25;4.73;;;4.33;;
10232;SDS011;5161;48.174;11.756;2024-02-26T03:27:50;4.80;;;4.40;;
10232;SDS011;5161;48.174;11.756;2024-02-26T03:30:16;5.27;;;4.57;;
10232;SDS011;5161;48.174;11.756;2024-02-26T03:32:42;4.93;;;4.30;;
10232;SDS011;5161;48.174;11.756;2024-02-26T03:35:07;4.60;;;4.20;;
10232;SDS011;5161;48.174;11.756;2024-02-26T03:37:33;5.00;;;4.17;;
10232;SDS011;5161;48.174;11.756;2024-02-26T03:39:59;4.83;;;4.30;;
10232;SDS011;5161;48.174;11.756;2024-02-26T03:42:26;4.90;;;4.00;;
10232;SDS011;5161;48.174;11.756;2024-02-26T03:44:51;4.30;;;3.90;;
10232;SDS011;5161;48.174;11.756;2024-02-26T03:47:17;4.30;;;3.90;;
10232;SDS011;5161;48.174;11.756;2024-02-26T03:49:43;4.40;;;4.00;;
10232;SDS011;5161;48.174;11.756;2024-02-26T03:52:08;3.83;;;3.53;;
10232;SDS011;5161;48.174;11.756;2024-02-26T03:54:34;3.63;;;3.33;;
10232;SDS011;5161;48.174;11.756;2024-02-26T03:56:59;4.47;;;3.70;;
10232;SDS011;5161;48.174;11.756;2024-02-26T03:59:25;4.57;;;3.80;;
10232;SDS011;5161;48.174;11.756;2024-02-26T04:01:51;4.40;;;4.00;;
10232;SDS011;5161;48.174;11.756;2024-02-26T04:04:17;3.90;;;3.50;;
10232;SDS011;5161;48.174;11.756;2024-02-26T04:06:45;3.73;;;3.43;;
10232;SDS011;5161;48.174;11.756;2024-02-26T04:09:13;3.37;;;3.07;;
10232;SDS011;5161;48.174;11.756;2024-02-26T04:11:39;3.77;;;3.30;;
10232;SDS011;5161;48.174;11.756;2024-02-26T04:14:05;3.20;;;2.90;;
10232;SDS011;5161;48.174;11.756;2024-02-26T04:16:33;3.23;;;2.97;;
10232;SDS011;5161;48.174;11.756;2024-02-26T04:18:59;2.93;;;2.73;;
10232;SDS011;5161;48.174;11.756;2024-02-26T04:21:25;2.83;;;2.63;;
10232;SDS011;5161;48.174;11.756;2024-02-26T04:23:50;2.97;;;2.77;;
10232;SDS011;5161;48.174;11.756;2024-02-26T04:26:19;3.57;;;2.80;;
10232;SDS011;5161;48.174;11.756;2024-02-26T04:28:46;3.13;;;2.77;;
10232;SDS011;5161;48.174;11.756;2024-02-26T04:31:11;2.90;;;2.60;;
10232;SDS011;5161;48.174;11.756;2024-02-26T04:33:37;3.33;;;2.77;;
10232;SDS011;5161;48.174;11.756;2024-02-26T04:36:03;3.10;;;2.80;;
10232;SDS011;5161;48.174;11.756;2024-02-26T04:38:30;3.00;;;2.80;;
10232;SDS011;5161;48.174;11.756;2024-02-26T04:40:55;2.87;;;2.67;;
10232;SDS011;5161;48.174;11.756;2024-02-26T04:43:21;3.17;;;2.83;;
10232;SDS011;5161;48.174;11.756;2024-02-26T04:45:47;3.20;;;2.60;;
10232;SDS011;5161;48.174;11.756;2024-02-26T04:48:13;2.90;;;2.70;;
10232;SDS011;5161;48.174;11.756;2024-02-26T04:50:38;2.70;;;2.60;;
10232;SDS011;5161;48.174;11.756;2024-02-26T04:53:04;2.93;;;2.73;;
10232;SDS011;5161;48.174;11.756;2024-02-26T04:55:29;2.90;;;2.70;;
10232;SDS011;5161;48.174;11.756;2024-02-26T04:57:55;2.80;;;2.60;;
10232;SDS011;5161;48.174;11.756;2024-02-26T05:00:21;2.90;;;2.70;;
10232;SDS011;5161;48.174;11.756;2024-02-26T05:02:46;2.87;;;2.67;;
10232;SDS011;5161;48.174;11.756;2024-02-26T05:05:12;2.87;;;2.67;;
10232;SDS011;5161;48.174;11.756;2024-02-26T05:07:41;4.83;;;2.87;;
10232;SDS011;5161;48.174;11.756;2024-02-26T05:10:07;3.10;;;2.90;;
10232;SDS011;5161;48.174;11.756;2024-02-26T05:12:33;3.13;;;2.93;;
10232;SDS011;5161;48.174;11.756;2024-02-26T05:15:00;2.90;;;2.70;;
10232;SDS011;5161;48.174;11.756;2024-02-26T05:17:26;2.87;;;2.67;;
10232;SDS011;5161;48.174;11.756;2024-02-26T05:19:52;3.13;;;2.90;;
10232;SDS011;5161;48.174;11.756;2024-02-26T05:22:17;3.20;;;2.90;;
10232;SDS011;5161;48.174;11.756;2024-02-26T05:24:43;3.93;;;3.33;;
10232;SDS011;5161;48.174;11.756;2024-02-26T05:27:08;3.67;;;3.37;;
10232;SDS011;5161;48.174;11.756;2024-02-26T05:29:34;3.33;;;3.13;;
10232;SDS011;5161;48.174;11.756;2024-02-26T05:32:00;3.40;;;2.83;;
10232;SDS011;5161;48.174;11.756;2024-02-26T05:34:25;3.27;;;2.97;;
10232;SDS011;5161;48.174;11.756;2024-02-26T05:36:51;3.30;;;3.00;;
10232;SDS011;5161;48.174;11.756;2024-02-26T05:39:17;3.90;;;2.83;;
10232;SDS011;5161;48.174;11.756;2024-02-26T05:41:42;3.50;;;3.00;;
10232;SDS011;5161;48.174;11.756;2024-02-26T05:44:08;3.43;;;2.87;;
10232;SDS011;5161;48.174;11.756;2024-02-26T05:46:35;6.53;;;3.17;;
10232;SDS011;5161;48.174;11.756;2024-02-26T05:49:00;6.17;;;3.27;;
10232;SDS011;5161;48.174;11.756;2024-02-26T05:51:26;3.70;;;3.00;;
10232;SDS011;5161;48.174;11.756;2024-02-26T05:53:52;4.80;;;3.17;;
10232;SDS011;5161;48.174;11.756;2024-02-26T05:56:21;3.10;;;2.90;;
10232;SDS011;5161;48.174;11.756;2024-02-26T05:58:47;3.10;;;2.90;;
10232;SDS011;5161;48.174;11.756;2024-02-26T06:01:13;3.30;;;3.00;;
10232;SDS011;5161;48.174;11.756;2024-02-26T06:03:41;3.60;;;3.30;;
10232;SDS011;5161;48.174;11.756;2024-02-26T06:06:07;3.90;;;3.60;;
10232;SDS011;5161;48.174;11.756;2024-02-26T06:08:33;5.50;;;3.60;;
10232;SDS011;5161;48.174;11.756;2024-02-26T06:10:58;5.13;;;4.10;;
10232;SDS011;5161;48.174;11.756;2024-02-26T06:13:24;9.60;;;3.30;;
10232;SDS011;5161;48.174;11.756;2024-02-26T06:15:49;4.43;;;3.70;;
10232;SDS011;5161;48.174;11.756;2024-02-26T06:18:15;4.57;;;3.73;;
10232;SDS011;5161;48.174;11.756;2024-02-26T06:20:41;5.03;;;3.40;;
10232;SDS011;5161;48.174;11.756;2024-02-26T06:23:06;4.17;;;3.70;;
10232;SDS011;5161;48.174;11.756;2024-02-26T06:25:32;4.07;;;3.67;;
10232;SDS011;5161;48.174;11.756;2024-02-26T06:27:57;6.17;;;3.77;;
10232;SDS011;5161;48.174;11.756;2024-02-26T06:30:24;7.27;;;3.77;;
10232;SDS011;5161;48.174;11.756;2024-02-26T06:32:50;5.57;;;3.53;;
10232;SDS011;5161;48.174;11.756;2024-02-26T06:35:15;4.00;;;3.40;;
10232;SDS011;5161;48.174;11.756;2024-02-26T06:37:41;3.93;;;3.50;;
10232;SDS011;5161;48.174;11.756;2024-02-26T06:40:07;4.43;;;3.20;;
10232;SDS011;5161;48.174;11.756;2024-02-26T06:42:33;5.77;;;3.00;;
10232;SDS011;5161;48.174;11.756;2024-02-26T06:44:58;3.87;;;3.47;;
10232;SDS011;5161;48.174;11.756;2024-02-26T06:47:24;5.50;;;3.30;;
10232;SDS011;5161;48.174;11.756;2024-02-26T06:49:50;4.63;;;3.60;;
10232;SDS011;5161;48.174;11.756;2024-02-26T06:52:16;12.03;;;3.73;;
10232;SDS011;5161;48.174;11.756;2024-02-26T06:54:42;7.67;;;3.40;;
10232;SDS011;5161;48.174;11.756;2024-02-26T06:57:07;4.23;;;3.30;;
10232;SDS011;5161;48.174;11.756;2024-02-26T06:59:33;4.00;;;3.20;;
10232;SDS011;5161;48.174;11.756;2024-02-26T07:01:58;7.23;;;3.13;;
10232;SDS011;5161;48.174;11.756;2024-02-26T07:04:24;3.97;;;3.10;;
10232;SDS011;5161;48.174;11.756;2024-02-26T07:06:49;5.93;;;3.20;;
10232;SDS011;5161;48.174;11.756;2024-02-26T07:09:15;5.43;;;3.10;;
10232;SDS011;5161;48.174;11.756;2024-02-26T07:11:41;3.80;;;3.47;;
10232;SDS011;5161;48.174;11.756;2024-02-26T07:14:09;3.50;;;3.20;;
10232;SDS011;5161;48.174;11.756;2024-02-26T07:16:35;3.40;;;3.10;;
10232;SDS011;5161;48.174;11.756;2024-02-26T07:19:01;3.23;;;2.93;;
10232;SDS011;5161;48.174;11.756;2024-02-26T07:21:27;3.43;;;3.03;;
10232;SDS011;5161;48.174;11.756;2024-02-26T07:23:53;4.33;;;3.30;;
10232;SDS011;5161;48.174;11.756;2024-02-26T07:26:19;6.53;;;3.00;;
10232;SDS011;5161;48.174;11.756;2024-02-26T07:28:44;4.50;;;3.17;;
10232;SDS011;5161;48.174;11.756;2024-02-26T07:31:10;3.87;;;3.30;;
10232;SDS011;5161;48.174;11.756;2024-02-26T07:33:36;6.43;;;3.10;;
10232;SDS011;5161;48.174;11.756;2024-02-26T07:36:01;4.97;;;3.23;;
10232;SDS011;5161;48.174;11.756;2024-02-26T07:38:27;5.17;;;3.83;;
10232;SDS011;5161;48.174;11.756;2024-02-26T07:40:53;5.90;;;3.10;;
10232;SDS011;5161;48.174;11.756;2024-02-26T07:43:18;5.00;;;2.90;;
10232;SDS011;5161;48.174;11.756;2024-02-26T07:45:44;9.73;;;4.47;;
10232;SDS011;5161;48.174;11.756;2024-02-26T07:48:09;31.73;;;13.30;;
10232;SDS011;5161;48.174;11.756;2024-02-26T07:50:35;56.67;;;27.10;;
10232;SDS011;5161;48.174;11.756;2024-02-26T07:53:01;63.73;;;31.07;;
10232;SDS011;5161;48.174;11.756;2024-02-26T07:55:27;27.60;;;13.03;;
10232;SDS011;5161;48.174;11.756;2024-02-26T07:57:52;11.07;;;5.23;;
10232;SDS011;5161;48.174;11.756;2024-02-26T08:00:18;18.13;;;4.93;;
10232;SDS011;5161;48.174;11.756;2024-02-26T08:02:44;21.60;;;5.67;;
10232;SDS011;5161;48.174;11.756;2024-02-26T08:05:10;7.50;;;4.60;;
10232;SDS011;5161;48.174;11.756;2024-02-26T08:07:35;10.03;;;5.00;;
10232;SDS011;5161;48.174;11.756;2024-02-26T08:10:01;10.50;;;4.13;;
10232;SDS011;5161;48.174;11.756;2024-02-26T08:12:27;4.33;;;3.43;;
10232;SDS011;5161;48.174;11.756;2024-02-26T08:14:52;5.80;;;3.40;;
10232;SDS011;5161;48.174;11.756;2024-02-26T08:17:18;5.93;;;3.60;;
10232;SDS011;5161;48.174;11.756;2024-02-26T08:19:43;4.97;;;3.53;;
10232;SDS011;5161;48.174;11.756;2024-02-26T08:22:09;4.47;;;3.63;;
10232;SDS011;5161;48.174;11.756;2024-02-26T08:24:40;7.17;;;3.70;;
10232;SDS011;5161;48.174;11.756;2024-02-26T08:27:09;6.27;;;3.87;;
10232;SDS011;5161;48.174;11.756;2024-02-26T08:29:35;5.60;;;3.70;;
10232;SDS011;5161;48.174;11.756;2024-02-26T08:32:01;4.03;;;3.40;;
10232;SDS011;5161;48.174;11.756;2024-02-26T08:34:26;6.77;;;3.67;;
10232;SDS011;5161;48.174;11.756;2024-02-26T08:36:52;5.43;;;3.33;;
10232;SDS011;5161;48.174;11.756;2024-02-26T08:39:17;8.00;;;3.33;;
10232;SDS011;5161;48.174;11.756;2024-02-26T08:41:43;5.77;;;3.50;;
10232;SDS011;5161;48.174;11.756;2024-02-26T08:44:09;5.80;;;3.23;;
10232;SDS011;5161;48.174;11.756;2024-02-26T08:46:35;4.57;;;3.43;;
10232;SDS011;5161;48.174;11.756;2024-02-26T08:49:01;3.70;;;3.30;;
10232;SDS011;5161;48.174;11.756;2024-02-26T08:51:27;3.40;;;3.10;;
10232;SDS011;5161;48.174;11.756;2024-02-26T08:53:52;2.90;;;2.70;;
10232;SDS011;5161;48.174;11.756;2024-02-26T08:56:18;3.87;;;2.60;;
10232;SDS011;5161;48.174;11.756;2024-02-26T08:58:46;3.27;;;3.07;;
10232;SDS011;5161;48.174;11.756;2024-02-26T09:01:14;3.97;;;2.40;;
10232;SDS011;5161;48.174;11.756;2024-02-26T09:03:40;3.27;;;2.97;;
10232;SDS011;5161;48.174;11.756;2024-02-26T09:06:05;3.00;;;2.80;;
10232;SDS011;5161;48.174;11.756;2024-02-26T09:08:32;4.10;;;3.43;;
10232;SDS011;5161;48.174;11.756;2024-02-26T09:10:58;3.90;;;3.50;;
10232;SDS011;5161;48.174;11.756;2024-02-26T09:13:23;3.13;;;2.93;;
10232;SDS011;5161;48.174;11.756;2024-02-26T09:15:49;7.50;;;3.20;;
10232;SDS011;5161;48.174;11.756;2024-02-26T09:18:14;3.10;;;2.90;;
10232;SDS011;5161;48.174;11.756;2024-02-26T09:20:40;3.13;;;2.87;;
10232;SDS011;5161;48.174;11.756;2024-02-26T09:23:06;4.33;;;3.20;;
10232;SDS011;5161;48.174;11.756;2024-02-26T09:25:32;3.00;;;2.70;;
10232;SDS011;5161;48.174;11.756;2024-02-26T09:27:58;6.57;;;3.10;;
10232;SDS011;5161;48.174;11.756;2024-02-26T09:30:24;3.43;;;3.13;;
10232;SDS011;5161;48.174;11.756;2024-02-26T09:32:50;4.27;;;3.20;;
10232;SDS011;5161;48.174;11.756;2024-02-26T09:35:16;3.50;;;3.20;;
10232;SDS011;5161;48.174;11.756;2024-02-26T09:37:41;4.93;;;3.20;;
10232;SDS011;5161;48.174;11.756;2024-02-26T09:40:09;7.53;;;3.57;;
10232;SDS011;5161;48.174;11.756;2024-02-26T09:42:36;12.00;;;3.47;;
10232;SDS011;5161;48.174;11.756;2024-02-26T09:45:07;5.37;;;3.63;;
10232;SDS011;5161;48.174;11.756;2024-02-26T09:47:37;3.00;;;2.80;;
10232;SDS011;5161;48.174;11.756;2024-02-26T09:50:03;3.73;;;2.70;;
10232;SDS011;5161;48.174;11.756;2024-02-26T09:52:32;2.90;;;2.53;;
10232;SDS011;5161;48.174;11.756;2024-02-26T09:54:59;3.97;;;2.50;;
10232;SDS011;5161;48.174;11.756;2024-02-26T09:57:25;6.77;;;2.40;;
10232;SDS011;5161;48.174;11.756;2024-02-26T09:59:53;4.07;;;2.53;;
10232;SDS011;5161;48.174;11.756;2024-02-26T10:02:23;2.80;;;2.20;;
10232;SDS011;5161;48.174;11.756;2024-02-26T10:04:49;2.33;;;2.23;;
10232;SDS011;5161;48.174;11.756;2024-02-26T10:07:17;2.43;;;2.20;;
10232;SDS011;5161;48.174;11.756;2024-02-26T10:09:43;2.43;;;2.20;;
10232;SDS011;5161;48.174;11.756;2024-02-26T10:12:10;2.80;;;2.20;;
10232;SDS011;5161;48.174;11.756;2024-02-26T10:14:36;2.60;;;2.40;;
10232;SDS011;5161;48.174;11.756;2024-02-26T10:17:02;2.43;;;2.23;;
10232;SDS011;5161;48.174;11.756;2024-02-26T10:19:31;2.60;;;2.40;;
10232;SDS011;5161;48.174;11.756;2024-02-26T10:21:57;3.27;;;2.40;;
10232;SDS011;5161;48.174;11.756;2024-02-26T10:24:24;2.50;;;2.30;;
10232;SDS011;5161;48.174;11.756;2024-02-26T10:26:51;2.60;;;2.37;;
10232;SDS011;5161;48.174;11.756;2024-02-26T10:29:20;2.20;;;2.10;;
10232;SDS011;5161;48.174;11.756;2024-02-26T10:31:46;3.13;;;2.60;;
10232;SDS011;5161;48.174;11.756;2024-02-26T10:34:12;2.60;;;2.40;;
10232;SDS011;5161;48.174;11.756;2024-02-26T10:36:40;2.70;;;2.50;;
10232;SDS011;5161;48.174;11.756;2024-02-26T10:39:09;2.80;;;2.60;;
10232;SDS011;5161;48.174;11.756;2024-02-26T10:41:36;3.10;;;2.63;;
10232;SDS011;5161;48.174;11.756;2024-02-26T10:44:03;2.57;;;2.30;;
10232;SDS011;5161;48.174;11.756;2024-02-26T10:46:28;2.73;;;2.47;;
10232;SDS011;5161;48.174;11.756;2024-02-26T10:48:54;4.20;;;3.80;;
10232;SDS011;5161;48.174;11.756;2024-02-26T10:51:27;2.93;;;2.73;;
10232;SDS011;5161;48.174;11.756;2024-02-26T10:53:58;3.13;;;2.93;;
10232;SDS011;5161;48.174;11.756;2024-02-26T10:56:28;2.70;;;2.50;;
10232;SDS011;5161;48.174;11.756;2024-02-26T10:58:57;3.10;;;2.90;;
10232;SDS011;5161;48.174;11.756;2024-02-26T11:01:24;3.10;;;2.90;;
10232;SDS011;5161;48.174;11.756;2024-02-26T11:03:50;3.07;;;2.87;;
10232;SDS011;5161;48.174;11.756;2024-02-26T11:06:18;4.10;;;2.63;;
10232;SDS011;5161;48.174;11.756;2024-02-26T11:08:50;2.40;;;2.30;;
10232;SDS011;5161;48.174;11.756;2024-02-26T11:11:20;2.33;;;2.20;;
10232;SDS011;5161;48.174;11.756;2024-02-26T11:13:47;3.17;;;2.60;;
10232;SDS011;5161;48.174;11.756;2024-02-26T11:16:20;2.70;;;2.50;;
10232;SDS011;5161;48.174;11.756;2024-02-26T11:18:47;3.97;;;2.60;;
10232;SDS011;5161;48.174;11.756;2024-02-26T11:21:16;4.37;;;2.27;;
10232;SDS011;5161;48.174;11.756;2024-02-26T11:23:52;2.40;;;2.20;;
10232;SDS011;5161;48.174;11.756;2024-02-26T11:26:18;2.27;;;2.07;;
10232;SDS011;5161;48.174;11.756;2024-02-26T11:28:46;3.03;;;1.80;;
10232;SDS011;5161;48.174;11.756;2024-02-26T11:31:13;1.57;;;1.50;;
10232;SDS011;5161;48.174;11.756;2024-02-26T11:33:38;1.70;;;1.50;;
10232;SDS011;5161;48.174;11.756;2024-02-26T11:36:14;2.20;;;1.33;;
10232;SDS011;5161;48.174;11.756;2024-02-26T11:38:41;1.67;;;1.57;;
10232;SDS011;5161;48.174;11.756;2024-02-26T11:41:07;1.53;;;1.50;;
10232;SDS011;5161;48.174;11.756;2024-02-26T11:46:25;1.37;;;1.33;;
10232;SDS011;5161;48.174;11.756;2024-02-26T11:48:54;1.30;;;1.30;;
10232;SDS011;5161;48.174;11.756;2024-02-26T11:51:24;1.60;;;1.50;;
10232;SDS011;5161;48.174;11.756;2024-02-26T11:53:51;2.07;;;1.53;;
10232;SDS011;5161;48.174;11.756;2024-02-26T11:58:59;1.87;;;1.40;;
10232;SDS011;5161;48.174;11.756;2024-02-26T12:04:04;1.60;;;1.50;;
10232;SDS011;5161;48.174;11.756;2024-02-26T12:06:31;1.43;;;1.43;;
10232;SDS011;5161;48.174;11.756;2024-02-26T12:09:05;1.20;;;1.20;;
10232;SDS011;5161;48.174;11.756;2024-02-26T12:11:32;1.20;;;1.20;;
10232;SDS011;5161;48.174;11.756;2024-02-26T12:13:57;1.20;;;1.20;;
10232;SDS011;5161;48.174;11.756;2024-02-26T12:16:39;1.57;;;1.33;;
10232;SDS011;5161;48.174;11.756;2024-02-26T12:19:08;1.57;;;1.47;;
10232;SDS011;5161;48.174;11.756;2024-02-26T12:21:34;1.60;;;1.50;;
10232;SDS011;5161;48.174;11.756;2024-02-26T12:24:10;3.63;;;1.80;;
10232;SDS011;5161;48.174;11.756;2024-02-26T12:26:38;6.60;;;4.40;;
10232;SDS011;5161;48.174;11.756;2024-02-26T12:29:04;6.80;;;6.10;;
10232;SDS011;5161;48.174;11.756;2024-02-26T12:31:30;6.93;;;6.07;;
10232;SDS011;5161;48.174;11.756;2024-02-26T12:34:01;7.50;;;6.70;;
10232;SDS011;5161;48.174;11.756;2024-02-26T12:36:28;7.97;;;6.67;;
10232;SDS011;5161;48.174;11.756;2024-02-26T12:38:54;7.60;;;6.67;;
10232;SDS011;5161;48.174;11.756;2024-02-26T12:41:20;6.73;;;6.13;;
10232;SDS011;5161;48.174;11.756;2024-02-26T12:43:46;8.70;;;6.93;;
10232;SDS011;5161;48.174;11.756;2024-02-26T12:46:11;7.97;;;6.23;;
10232;SDS011;5161;48.174;11.756;2024-02-26T12:48:39;7.47;;;6.77;;
10232;SDS011;5161;48.174;11.756;2024-02-26T12:51:07;6.90;;;6.30;;
10232;SDS011;5161;48.174;11.756;2024-02-26T12:53:35;9.00;;;6.37;;
10232;SDS011;5161;48.174;11.756;2024-02-26T12:56:00;8.70;;;6.37;;
10232;SDS011;5161;48.174;11.756;2024-02-26T12:58:28;6.87;;;6.00;;
10232;SDS011;5161;48.174;11.756;2024-02-26T13:00:54;9.43;;;5.47;;
10232;SDS011;5161;48.174;11.756;2024-02-26T13:03:21;11.90;;;6.37;;
10232;SDS011;5161;48.174;11.756;2024-02-26T13:05:48;6.83;;;6.13;;
10232;SDS011;5161;48.174;11.756;2024-02-26T13:08:17;10.77;;;6.90;;
10232;SDS011;5161;48.174;11.756;2024-02-26T13:10:45;12.77;;;11.47;;
10232;SDS011;5161;48.174;11.756;2024-02-26T13:13:12;16.73;;;14.33;;
10232;SDS011;5161;48.174;11.756;2024-02-26T13:15:41;11.27;;;10.27;;
10232;SDS011;5161;48.174;11.756;2024-02-26T13:18:10;14.90;;;13.40;;
10232;SDS011;5161;48.174;11.756;2024-02-26T13:20:37;10.53;;;9.33;;
10232;SDS011;5161;48.174;11.756;2024-02-26T13:23:05;16.40;;;14.70;;
10232;SDS011;5161;48.174;11.756;2024-02-26T13:25:33;18.10;;;15.77;;
10232;SDS011;5161;48.174;11.756;2024-02-26T13:28:13;14.77;;;11.00;;
10232;SDS011;5161;48.174;11.756;2024-02-26T13:30:52;7.53;;;6.73;;
10232;SDS011;5161;48.174;11.756;2024-02-26T13:33:22;45.50;;;39.37;;
10232;SDS011;5161;48.174;11.756;2024-02-26T13:35:49;11.33;;;9.43;;
10232;SDS011;5161;48.174;11.756;2024-02-26T13:38:14;8.10;;;7.30;;
10232;SDS011;5161;48.174;11.756;2024-02-26T13:40:40;9.70;;;6.53;;
10232;SDS011;5161;48.174;11.756;2024-02-26T13:43:06;8.50;;;7.60;;
10232;SDS011;5161;48.174;11.756;2024-02-26T13:45:33;6.93;;;6.23;;
10232;SDS011;5161;48.174;11.756;2024-02-26T13:48:04;5.80;;;5.33;;
10232;SDS011;5161;48.174;11.756;2024-02-26T13:50:31;6.87;;;5.73;;
10232;SDS011;5161;48.174;11.756;2024-02-26T13:52:57;6.33;;;5.73;;
10232;SDS011;5161;48.174;11.756;2024-02-26T13:55:23;6.90;;;6.40;;
10232;SDS011;5161;48.174;11.756;2024-02-26T13:57:55;6.47;;;5.13;;
10232;SDS011;5161;48.174;11.756;2024-02-26T14:00:21;5.23;;;4.77;;
10232;SDS011;5161;48.174;11.756;2024-02-26T14:02:47;4.30;;;4.00;;
10232;SDS011;5161;48.174;11.756;2024-02-26T14:05:13;4.23;;;3.83;;
10232;SDS011;5161;48.174;11.756;2024-02-26T14:07:39;4.37;;;3.60;;
10232;SDS011;5161;48.174;11.756;2024-02-26T14:10:05;5.80;;;3.70;;
10232;SDS011;5161;48.174;11.756;2024-02-26T14:12:31;3.60;;;3.30;;
10232;SDS011;5161;48.174;11.756;2024-02-26T14:14:56;4.90;;;4.40;;
10232;SDS011;5161;48.174;11.756;2024-02-26T14:17:24;4.13;;;3.70;;
10232;SDS011;5161;48.174;11.756;2024-02-26T14:19:49;3.80;;;3.27;;
10232;SDS011;5161;48.174;11.756;2024-02-26T14:22:15;4.90;;;3.70;;
10232;SDS011;5161;48.174;11.756;2024-02-26T14:24:41;5.00;;;3.43;;
10232;SDS011;5161;48.174;11.756;2024-02-26T14:27:08;3.40;;;3.17;;
10232;SDS011;5161;48.174;11.756;2024-02-26T14:29:36;3.63;;;3.40;;
10232;SDS011;5161;48.174;11.756;2024-02-26T14:32:03;4.37;;;3.53;;
10232;SDS011;5161;48.174;11.756;2024-02-26T14:34:29;5.50;;;3.60;;
10232;SDS011;5161;48.174;11.756;2024-02-26T14:36:54;4.00;;;3.60;;
10232;SDS011;5161;48.174;11.756;2024-02-26T14:39:20;4.30;;;3.90;;
10232;SDS011;5161;48.174;11.756;2024-02-26T14:41:46;3.67;;;3.37;;
10232;SDS011;5161;48.174;11.756;2024-02-26T14:44:11;3.77;;;3.43;;
10232;SDS011;5161;48.174;11.756;2024-02-26T14:46:38;4.90;;;3.57;;
10232;SDS011;5161;48.174;11.756;2024-02-26T14:49:03;3.40;;;3.10;;